Hervey City, Illinois
Current Conditions -  °F | °C
As of 2:54 AM on Thursday 27 Nov 2014 (Local Time) from KDEC Reporting Station
Clear Clear  
Wind Chill: 12°   Ceiling: Unl
Heat Index: 24°   Visibility: 7mi
Dew Point: 19°   Wind: 14mph
Humidity: 81%   Direction: 330°NNW
Pressure: 30.28"   Gusts: NA
Location:  39.7516°N, 88.8516°W
Report Text: KDEC 270854Z AUTO 33012KT 7SM CLR M04/M07 A3028 RMK AO2 SLP262 T10441072 53024 TSNO
Loading
Personal Weather Stations






























Interactive Weather Map New forecast layout! Learn more

10-Day Weather Forecast

Advertisements
Track Severe Weather on mobile